Ana Sayfa
METAR-TAF:

METAR-TAF

Havaalanları :

Cusco, Peru

Enlem: 13-33S, Boylam: 071-59W, yükseklik: 3248 m

Güncel hava durumu gözlemi

Rapor saat 00:00 UTC de 9 dakika önce yapıldı.
Rüzgar doğu/güneydoğudan 9 kt
Sıcaklık 12°C
Nem 54%
Basınç 1031 hPa
Görüş mesafesi 10 km veya daha fazla

METAR: SPZO 250000Z 11009KT 9999 NSC 12/03 Q1031 NOSIG RMK BIRD HAZARD RWY 28 PP000

Saat: 19:09 (00:09 UTC)

Tahmin

Rapor saat 23:00 UTC de 1 saat ve 9 dakika önce yapıldı.
Ayın 25'si saat 00 UTC'den ayın 25'si saat 24 UTC'ye kadar geçerli Tahmin
Rüzgar kuzeydan kt
Görüş mesafesi 10 km veya daha fazla
5000 ft yükseklikte az bulutlu
10000 ft yükseklikte parçalı bulutlu
Dönüşüyor
ayın 25'si saat 17 UTC'den ayın 25'si saat 18 UTC'ye kadar
Rüzgar kuzeydan 12 kt
Dönüşüyor
ayın 25'si saat 23 UTC'den ayın 25'si saat 24 UTC'ye kadar
Rüzgar kuzeydan kt

TAF: SPZO 242300Z 2500/2524 00000KT 9999 FEW050 SCT100 TX21/2519Z TN04/2511Z BECMG 2517/2518 36012KT BECMG 2523/2524 00000KT

4.000'den fazla havaalanı için hava durumu gözlemleri ve tahminleri (METAR ve TAF raporları).

Kullanılabilir istasyonlar harita üzerinde sarı ve kırmızı noktalarla gösterilir.

İstasyonun adını görmek için fareyi noktanın üzerinde gezdirin.

Sonrasında hava gözlem ve tahminlerini görmek için tıklayın.

Haritayı değiştirmek için: yaklaştırmak için siyah artı işaretli yeşil düğmeye ve uzaklaştırmak için de eksi işaretli düğmeye hızla tıklayın; bitişik haritalar için yeşil okları kullanın.


METAR-TAF: